createdAt,value
2023-04-15T00:02:26.605Z,40.69
2023-04-15T00:07:29.677Z,39.85
2023-04-15T00:12:31.668Z,40.19
2023-04-15T00:17:33.750Z,40.70
2023-04-15T00:22:36.257Z,40.34
2023-04-15T00:27:38.744Z,39.82
2023-04-15T00:32:42.362Z,39.68
2023-04-15T00:37:46.013Z,40.31
2023-04-15T00:42:48.433Z,39.21
2023-04-15T00:47:51.335Z,39.12
2023-04-15T00:52:53.218Z,39.26
2023-04-15T00:57:55.107Z,38.68
2023-04-15T01:02:57.811Z,39.68
2023-04-15T01:07:59.934Z,39.46
2023-04-15T01:13:03.257Z,40.98
2023-04-15T01:18:05.705Z,41.03
2023-04-15T01:23:07.636Z,41.05
2023-04-15T01:28:10.906Z,40.77
2023-04-15T01:33:13.298Z,41.27
2023-04-15T01:38:33.765Z,40.56
2023-04-15T01:43:38.898Z,40.68
2023-04-15T01:48:42.043Z,41.00
2023-04-15T01:53:45.515Z,40.46
2023-04-15T01:58:48.594Z,41.75
2023-04-15T02:03:52.270Z,40.59
2023-04-15T02:08:55.602Z,41.34
2023-04-15T02:13:58.651Z,40.63
2023-04-15T02:19:03.406Z,41.40
2023-04-15T02:24:06.736Z,41.05
2023-04-15T02:29:09.862Z,41.91
2023-04-15T02:34:14.380Z,41.79
2023-04-15T02:39:21.557Z,42.25
2023-04-15T02:44:25.127Z,42.39
2023-04-15T02:49:33.867Z,43.08
2023-04-15T02:54:37.074Z,43.96
2023-04-15T02:59:40.109Z,43.93
2023-04-15T03:04:43.155Z,43.71
2023-04-15T03:09:47.798Z,43.66
2023-04-15T03:14:51.317Z,42.38
2023-04-15T03:19:57.578Z,43.08
2023-04-15T03:25:00.983Z,43.98
2023-04-15T03:30:06.766Z,43.41
2023-04-15T03:35:13.085Z,43.84
2023-04-15T03:40:16.425Z,44.28
2023-04-15T03:45:19.536Z,43.47
2023-04-15T03:50:22.954Z,44.05
2023-04-15T03:55:26.062Z,44.07
2023-04-15T04:00:29.199Z,44.17
2023-04-15T04:05:32.304Z,44.53
2023-04-15T04:10:35.451Z,43.55
2023-04-15T04:15:38.645Z,42.90
2023-04-15T04:20:41.977Z,43.83
2023-04-15T04:25:45.058Z,43.84
2023-04-15T04:30:48.439Z,44.16
2023-04-15T04:35:51.861Z,43.87
2023-04-15T04:40:54.970Z,43.62
2023-04-15T04:45:58.056Z,45.54
2023-04-15T04:51:01.326Z,45.38
2023-04-15T04:56:04.659Z,44.17
2023-04-15T05:01:07.950Z,44.58
2023-04-15T05:06:11.436Z,43.60
2023-04-15T05:11:14.471Z,42.93
2023-04-15T05:16:17.819Z,43.64
2023-04-15T05:21:21.195Z,43.38
2023-04-15T05:26:24.425Z,44.43
2023-04-15T05:31:27.688Z,44.08
2023-04-15T05:36:31.529Z,43.26
2023-04-15T05:41:34.902Z,45.90
2023-04-15T05:46:38.015Z,44.50
2023-04-15T05:51:41.415Z,43.42
2023-04-15T05:56:44.395Z,45.52
2023-04-15T06:01:47.394Z,45.02
2023-04-15T06:06:50.438Z,44.04
2023-04-15T06:11:53.543Z,44.68
2023-04-15T06:16:56.585Z,52.42
2023-04-15T06:21:59.692Z,46.77
2023-04-15T06:27:03.362Z,48.90
2023-04-15T06:32:06.804Z,53.48
2023-04-15T06:37:11.178Z,49.27
2023-04-15T06:42:14.322Z,50.32
2023-04-15T06:47:17.344Z,58.14
2023-04-15T06:52:20.413Z,63.66
2023-04-15T06:57:23.380Z,66.92
2023-04-15T07:02:26.452Z,65.47
2023-04-15T07:07:29.640Z,63.96
2023-04-15T07:12:32.749Z,66.44
2023-04-15T07:17:35.762Z,57.21
2023-04-15T07:22:38.866Z,52.82
2023-04-15T07:27:41.862Z,53.59
2023-04-15T07:32:45.098Z,50.20
2023-04-15T07:37:48.579Z,50.13
2023-04-15T07:42:51.619Z,48.57
2023-04-15T07:47:56.200Z,47.32
2023-04-15T07:52:59.341Z,47.80
2023-04-15T07:58:02.392Z,50.02
2023-04-15T08:03:06.103Z,47.57
2023-04-15T08:08:09.296Z,49.23
2023-04-15T08:13:12.882Z,46.95
2023-04-15T08:18:16.379Z,46.61
2023-04-15T08:23:20.877Z,45.16
2023-04-15T08:28:23.928Z,45.04
2023-04-15T08:33:27.569Z,43.93
2023-04-15T08:38:30.749Z,43.88
2023-04-15T08:43:35.904Z,44.99
2023-04-15T08:48:40.501Z,43.84
2023-04-15T08:53:44.889Z,42.53
2023-04-15T08:58:48.663Z,44.53
2023-04-15T09:03:54.459Z,43.22
2023-04-15T09:08:57.747Z,42.72
2023-04-15T09:14:00.830Z,41.80
2023-04-15T09:19:21.626Z,42.23
2023-04-15T09:24:25.669Z,43.19
2023-04-15T09:29:28.677Z,41.69
2023-04-15T09:34:38.498Z,41.83
2023-04-15T09:39:52.737Z,45.67
2023-04-15T09:44:56.103Z,43.93
2023-04-15T09:50:01.056Z,44.66
2023-04-15T09:55:06.156Z,42.86
2023-04-15T10:00:11.260Z,48.28
2023-04-15T10:05:16.322Z,47.45
2023-04-15T10:10:20.705Z,46.79
2023-04-15T10:15:25.617Z,47.82
2023-04-15T10:20:29.954Z,44.47
2023-04-15T10:25:33.781Z,44.62
2023-04-15T10:30:37.162Z,42.49
2023-04-15T10:35:40.865Z,42.53
2023-04-15T10:40:45.415Z,43.23
2023-04-15T10:45:48.780Z,42.36
2023-04-15T10:51:01.093Z,42.52
2023-04-15T10:56:05.505Z,44.42
2023-04-15T11:01:08.628Z,45.04
2023-04-15T11:06:11.790Z,44.71
2023-04-15T11:11:15.136Z,45.35
2023-04-15T11:16:18.516Z,44.83
2023-04-15T11:21:26.164Z,44.67
2023-04-15T11:26:29.226Z,46.26
2023-04-15T11:31:32.318Z,44.01
2023-04-15T11:36:35.582Z,45.72
2023-04-15T11:41:38.646Z,46.15
2023-04-15T11:46:42.413Z,46.34
2023-04-15T11:51:46.777Z,46.08
2023-04-15T11:56:52.911Z,46.34
2023-04-15T12:01:55.108Z,46.80
2023-04-15T12:07:05.888Z,44.84
2023-04-15T12:12:08.156Z,46.05
2023-04-15T12:17:11.147Z,48.96
2023-04-15T12:22:15.247Z,48.19
2023-04-15T12:27:17.667Z,50.12
2023-04-15T12:32:21.140Z,48.92
2023-04-15T12:37:23.205Z,48.29
2023-04-15T12:42:25.268Z,49.76
2023-04-15T12:47:27.116Z,47.79
2023-04-15T12:52:28.958Z,48.67
2023-04-15T12:57:30.706Z,54.06
2023-04-15T13:02:32.683Z,55.98
2023-04-15T13:07:34.624Z,50.99
2023-04-15T13:12:36.761Z,52.86
2023-04-15T13:17:38.909Z,56.04
2023-04-15T13:22:40.858Z,61.81
2023-04-15T13:27:42.688Z,55.83
2023-04-15T13:32:44.502Z,56.47
2023-04-15T13:37:47.300Z,54.27
2023-04-15T13:42:49.043Z,50.39
2023-04-15T13:47:50.900Z,51.63
2023-04-15T13:52:52.741Z,47.02
2023-04-15T13:57:54.558Z,45.65
2023-04-15T14:02:56.501Z,48.06
2023-04-15T14:07:59.740Z,58.77
2023-04-15T14:13:01.470Z,58.89
2023-04-15T14:18:03.450Z,54.47
2023-04-15T14:23:05.292Z,53.23
2023-04-15T14:28:07.219Z,59.12
2023-04-15T14:33:09.281Z,62.04
2023-04-15T14:38:11.745Z,62.45
2023-04-15T14:43:13.610Z,61.84
2023-04-15T14:48:16.398Z,64.07
2023-04-15T14:53:18.261Z,66.00
2023-04-15T14:58:20.063Z,60.08
2023-04-15T15:03:22.036Z,53.39
2023-04-15T15:08:24.375Z,53.41
2023-04-15T15:13:26.229Z,61.07
2023-04-15T15:18:28.073Z,60.99
2023-04-15T15:23:30.014Z,62.72
2023-04-15T15:28:31.850Z,56.52
2023-04-15T15:33:33.691Z,57.11
2023-04-15T15:38:35.755Z,58.29
2023-04-15T15:43:37.618Z,55.42
2023-04-15T15:48:39.468Z,60.88
2023-04-15T15:53:41.462Z,56.66
2023-04-15T15:58:46.309Z,53.35
2023-04-15T16:03:48.311Z,52.33
2023-04-15T16:08:50.292Z,49.49
2023-04-15T16:13:52.125Z,48.24
2023-04-15T16:18:53.931Z,49.54
2023-04-15T16:23:56.129Z,48.66
2023-04-15T16:28:58.093Z,46.03
2023-04-15T16:33:59.905Z,49.95
2023-04-15T16:39:02.100Z,47.21
2023-04-15T16:44:04.207Z,46.70
2023-04-15T16:49:06.670Z,48.45
2023-04-15T16:54:08.845Z,47.01
2023-04-15T16:59:10.799Z,48.34
2023-04-15T17:04:14.864Z,47.18
2023-04-15T17:09:16.841Z,46.04
2023-04-15T17:14:18.775Z,44.86
2023-04-15T17:19:20.752Z,44.77
2023-04-15T17:24:32.480Z,43.75
2023-04-15T17:29:38.313Z,43.89
2023-04-15T17:34:51.539Z,43.10
2023-04-15T17:40:14.890Z,42.80
2023-04-15T17:45:36.717Z,43.20
2023-04-15T17:50:59.131Z,43.10
2023-04-15T17:56:20.999Z,42.55
2023-04-15T18:01:42.810Z,44.47
2023-04-15T18:07:05.736Z,44.09
2023-04-15T18:12:27.469Z,43.34
2023-04-15T18:17:49.189Z,43.46
2023-04-15T18:22:51.474Z,44.11
2023-04-15T18:27:54.673Z,43.41
2023-04-15T18:32:56.672Z,42.88
2023-04-15T18:37:59.012Z,42.38
2023-04-15T18:43:00.913Z,42.21
2023-04-15T18:48:03.085Z,43.97
2023-04-15T18:53:05.028Z,42.55
2023-04-15T18:58:08.828Z,44.45
2023-04-15T19:03:11.682Z,44.79
2023-04-15T19:08:13.592Z,44.51
2023-04-15T19:13:17.073Z,43.28
2023-04-15T19:18:20.347Z,42.46
2023-04-15T19:23:23.370Z,42.88
2023-04-15T19:28:26.449Z,42.28
2023-04-15T19:33:31.181Z,42.08
2023-04-15T19:38:35.929Z,42.35
2023-04-15T19:43:37.912Z,41.81
2023-04-15T19:48:39.665Z,43.02
2023-04-15T19:53:41.432Z,43.60
2023-04-15T19:58:46.534Z,44.47
2023-04-15T20:03:48.619Z,44.38
2023-04-15T20:08:50.868Z,43.23
2023-04-15T20:13:53.040Z,44.26
2023-04-15T20:18:54.863Z,44.58
2023-04-15T20:23:56.679Z,44.81
2023-04-15T20:28:59.542Z,44.58
2023-04-15T20:34:01.320Z,43.68
2023-04-15T20:39:03.370Z,44.00
2023-04-15T20:44:05.465Z,44.31
2023-04-15T20:49:07.507Z,45.32
2023-04-15T20:54:09.554Z,43.28
2023-04-15T20:59:11.381Z,43.47
2023-04-15T21:04:13.200Z,44.50
2023-04-15T21:09:15.009Z,43.93
2023-04-15T21:14:17.118Z,43.70
2023-04-15T21:19:18.872Z,44.10
2023-04-15T21:24:20.696Z,42.95
2023-04-15T21:29:22.856Z,42.80
2023-04-15T21:34:24.714Z,43.12
2023-04-15T21:39:26.561Z,42.10
2023-04-15T21:44:28.710Z,42.53
2023-04-15T21:49:30.672Z,43.77
2023-04-15T21:54:33.427Z,43.11
2023-04-15T21:59:35.398Z,42.76
2023-04-15T22:04:37.202Z,42.51
2023-04-15T22:09:39.023Z,43.33
2023-04-15T22:14:40.859Z,42.47
2023-04-15T22:19:42.651Z,44.76
2023-04-15T22:24:44.507Z,43.97
2023-04-15T22:29:46.374Z,45.42
2023-04-15T22:34:48.166Z,44.72
2023-04-15T22:39:50.082Z,44.61
2023-04-15T22:44:52.064Z,43.93
2023-04-15T22:49:53.932Z,43.32
2023-04-15T22:54:55.766Z,43.47
2023-04-15T22:59:57.646Z,44.08
2023-04-15T23:04:59.535Z,43.41
2023-04-15T23:10:05.735Z,43.89
2023-04-15T23:15:08.117Z,43.34
2023-04-15T23:20:11.314Z,44.31
2023-04-15T23:25:13.349Z,43.54
2023-04-15T23:30:15.125Z,44.79
2023-04-15T23:35:16.930Z,43.77
2023-04-15T23:40:18.708Z,46.20
2023-04-15T23:45:20.621Z,46.06
2023-04-15T23:50:22.434Z,45.96
2023-04-15T23:55:24.226Z,45.15
